CFG2UV EDDM-EDDF
Flight info
| Callsign | CFG2UV |
|---|---|
| Flight time | 0h 32m |
| Altitude | 24000 |
| Route | GIVMI1N GIVMI Y101 ERNAS T161 DEBHI DEBHI1B |
| Aircraft | A20N/M-SDE2E3FGHIRWXY/LB1 |
Departure
| Time | 2026-05-05 19:16 |
|---|---|
| Airport | Munich Airport (EDDM) |
Arrival
| Time | 2026-05-05 19:48 |
|---|---|
| Airport | Frankfurt Main Airport (EDDF) |
| Time | Latitude | Longitude | Altitude | Speed | Heading |
|---|---|---|---|---|---|
| 2026-05-05 18:42 | 48.35089 | 11.78350 | 1485 ft | 0 kts | 83° |
| 2026-05-05 18:58 | 48.35088 | 11.78343 | 1485 ft | 3 kts | 83° |
| 2026-05-05 18:58 | 48.35085 | 11.78304 | 1485 ft | 4 kts | 83° |
| 2026-05-05 18:58 | 48.35083 | 11.78271 | 1485 ft | 4 kts | 62° |
| 2026-05-05 18:58 | 48.35065 | 11.78250 | 1475 ft | 4 kts | 6° |
| 2026-05-05 18:59 | 48.35039 | 11.78251 | 1475 ft | 4 kts | 353° |
| 2026-05-05 18:59 | 48.35033 | 11.78252 | 1485 ft | 0 kts | 353° |
| 2026-05-05 19:01 | 48.35035 | 11.78252 | 1480 ft | 1 kts | 353° |
| 2026-05-05 19:01 | 48.35058 | 11.78248 | 1476 ft | 6 kts | 353° |
| 2026-05-05 19:01 | 48.35127 | 11.78236 | 1481 ft | 14 kts | 353° |
| 2026-05-05 19:02 | 48.35237 | 11.78217 | 1485 ft | 18 kts | 353° |
| 2026-05-05 19:02 | 48.35346 | 11.78170 | 1479 ft | 16 kts | 306° |
| 2026-05-05 19:02 | 48.35345 | 11.78002 | 1481 ft | 17 kts | 263° |
| 2026-05-05 19:02 | 48.35334 | 11.77841 | 1485 ft | 13 kts | 270° |
| 2026-05-05 19:03 | 48.35402 | 11.77773 | 1472 ft | 14 kts | 354° |
| 2026-05-05 19:03 | 48.35506 | 11.77755 | 1472 ft | 16 kts | 353° |
| 2026-05-05 19:03 | 48.35624 | 11.77735 | 1478 ft | 18 kts | 353° |
| 2026-05-05 19:03 | 48.35712 | 11.77719 | 1483 ft | 9 kts | 353° |
| 2026-05-05 19:04 | 48.35771 | 11.77710 | 1473 ft | 9 kts | 353° |
| 2026-05-05 19:04 | 48.35822 | 11.77701 | 1476 ft | 8 kts | 353° |
| 2026-05-05 19:04 | 48.35889 | 11.77689 | 1475 ft | 12 kts | 353° |
| 2026-05-05 19:04 | 48.35987 | 11.77672 | 1473 ft | 15 kts | 353° |
| 2026-05-05 19:05 | 48.36067 | 11.77680 | 1480 ft | 11 kts | 42° |
| 2026-05-05 19:05 | 48.36085 | 11.77801 | 1475 ft | 13 kts | 84° |
| 2026-05-05 19:05 | 48.36096 | 11.77950 | 1485 ft | 16 kts | 83° |
| 2026-05-05 19:05 | 48.36110 | 11.78124 | 1485 ft | 19 kts | 83° |
| 2026-05-05 19:06 | 48.36126 | 11.78344 | 1478 ft | 23 kts | 83° |
| 2026-05-05 19:06 | 48.36146 | 11.78592 | 1483 ft | 24 kts | 83° |
| 2026-05-05 19:06 | 48.36164 | 11.78836 | 1473 ft | 24 kts | 83° |
| 2026-05-05 19:06 | 48.36184 | 11.79088 | 1485 ft | 25 kts | 83° |
| 2026-05-05 19:07 | 48.36204 | 11.79352 | 1485 ft | 26 kts | 83° |
| 2026-05-05 19:07 | 48.36223 | 11.79589 | 1472 ft | 14 kts | 83° |
| 2026-05-05 19:07 | 48.36235 | 11.79745 | 1479 ft | 16 kts | 83° |
| 2026-05-05 19:07 | 48.36248 | 11.79923 | 1481 ft | 18 kts | 83° |
| 2026-05-05 19:08 | 48.36264 | 11.80122 | 1479 ft | 20 kts | 83° |
| 2026-05-05 19:08 | 48.36282 | 11.80339 | 1476 ft | 22 kts | 83° |
| 2026-05-05 19:08 | 48.36299 | 11.80573 | 1485 ft | 23 kts | 84° |
| 2026-05-05 19:08 | 48.36317 | 11.80818 | 1480 ft | 23 kts | 83° |
| 2026-05-05 19:09 | 48.36336 | 11.81062 | 1481 ft | 24 kts | 83° |
| 2026-05-05 19:09 | 48.36352 | 11.81275 | 1473 ft | 21 kts | 83° |
| 2026-05-05 19:09 | 48.36370 | 11.81497 | 1479 ft | 22 kts | 83° |
| 2026-05-05 19:09 | 48.36387 | 11.81719 | 1480 ft | 21 kts | 83° |
| 2026-05-05 19:10 | 48.36397 | 11.81851 | 1485 ft | 10 kts | 83° |
| 2026-05-05 19:10 | 48.36395 | 11.81956 | 1485 ft | 11 kts | 82° |
| 2026-05-05 19:10 | 48.36457 | 11.82001 | 1476 ft | 8 kts | 355° |
| 2026-05-05 19:10 | 48.36518 | 11.81990 | 1480 ft | 7 kts | 353° |
| 2026-05-05 19:11 | 48.36557 | 11.81984 | 1485 ft | 1 kts | 353° |
| 2026-05-05 19:11 | 48.36561 | 11.81983 | 1485 ft | 0 kts | 353° |
| 2026-05-05 19:14 | 48.36565 | 11.81982 | 1485 ft | 2 kts | 353° |
| 2026-05-05 19:14 | 48.36588 | 11.81978 | 1485 ft | 5 kts | 353° |
| 2026-05-05 19:14 | 48.36633 | 11.81970 | 1478 ft | 8 kts | 353° |
| 2026-05-05 19:14 | 48.36670 | 11.81915 | 1479 ft | 9 kts | 276° |
| 2026-05-05 19:15 | 48.36656 | 11.81692 | 1485 ft | 48 kts | 264° |
| 2026-05-05 19:15 | 48.36592 | 11.80862 | 1485 ft | 109 kts | 263° |
| 2026-05-05 19:15 | 48.36486 | 11.79481 | 1486 ft | 155 kts | 263° |
| 2026-05-05 19:15 | 48.36352 | 11.77787 | 1884 ft | 161 kts | 264° |
| 2026-05-05 19:16 | 48.36265 | 11.76065 | 2382 ft | 170 kts | 267° |
| 2026-05-05 19:16 | 48.36179 | 11.74267 | 2921 ft | 174 kts | 258° |
| 2026-05-05 19:16 | 48.35883 | 11.72478 | 3365 ft | 183 kts | 261° |
| 2026-05-05 19:16 | 48.35714 | 11.70520 | 3751 ft | 196 kts | 265° |
| 2026-05-05 19:17 | 48.35741 | 11.68361 | 4044 ft | 218 kts | 283° |
| 2026-05-05 19:17 | 48.36362 | 11.66255 | 4839 ft | 223 kts | 302° |
| 2026-05-05 19:17 | 48.37231 | 11.64261 | 5667 ft | 233 kts | 300° |
| 2026-05-05 19:17 | 48.38115 | 11.62130 | 6347 ft | 249 kts | 299° |
| 2026-05-05 19:18 | 48.39046 | 11.59846 | 6900 ft | 262 kts | 298° |
| 2026-05-05 19:18 | 48.40005 | 11.57483 | 7774 ft | 266 kts | 298° |
| 2026-05-05 19:18 | 48.40983 | 11.55069 | 8614 ft | 275 kts | 298° |
| 2026-05-05 19:18 | 48.41993 | 11.52575 | 9147 ft | 283 kts | 298° |
| 2026-05-05 19:19 | 48.43024 | 11.50025 | 9439 ft | 286 kts | 298° |
| 2026-05-05 19:19 | 48.44059 | 11.47469 | 9689 ft | 288 kts | 298° |
| 2026-05-05 19:19 | 48.45174 | 11.44934 | 9813 ft | 293 kts | 309° |
| 2026-05-05 19:19 | 48.46805 | 11.43091 | 9826 ft | 299 kts | 333° |
| 2026-05-05 19:20 | 48.48834 | 11.42292 | 9824 ft | 309 kts | 347° |
| 2026-05-05 19:20 | 48.51070 | 11.41684 | 9825 ft | 342 kts | 347° |
| 2026-05-05 19:20 | 48.53451 | 11.41050 | 9814 ft | 350 kts | 348° |
| 2026-05-05 19:20 | 48.55842 | 11.40415 | 9813 ft | 347 kts | 348° |
| 2026-05-05 19:21 | 48.58191 | 11.39786 | 9818 ft | 346 kts | 347° |
| 2026-05-05 19:21 | 48.60667 | 11.39099 | 9944 ft | 374 kts | 348° |
| 2026-05-05 19:21 | 48.63232 | 11.38391 | 10905 ft | 370 kts | 348° |
| 2026-05-05 19:21 | 48.65731 | 11.37707 | 12172 ft | 363 kts | 348° |
| 2026-05-05 19:22 | 48.68227 | 11.36960 | 12922 ft | 368 kts | 343° |
| 2026-05-05 19:22 | 48.70634 | 11.35655 | 13750 ft | 368 kts | 333° |
| 2026-05-05 19:22 | 48.72862 | 11.33736 | 14468 ft | 370 kts | 323° |
| 2026-05-05 19:22 | 48.75000 | 11.31541 | 15236 ft | 373 kts | 323° |
| 2026-05-05 19:23 | 48.77167 | 11.29341 | 15970 ft | 377 kts | 324° |
| 2026-05-05 19:23 | 48.79359 | 11.27123 | 16682 ft | 380 kts | 324° |
| 2026-05-05 19:23 | 48.81574 | 11.24879 | 17370 ft | 384 kts | 324° |
| 2026-05-05 19:23 | 48.83790 | 11.22612 | 18006 ft | 388 kts | 322° |
| 2026-05-05 19:24 | 48.85221 | 11.20899 | 18464 ft | 389 kts | 316° |
| 2026-05-05 19:24 | 48.87194 | 11.18148 | 19087 ft | 392 kts | 315° |
| 2026-05-05 19:24 | 48.89213 | 11.15331 | 19689 ft | 396 kts | 315° |
| 2026-05-05 19:24 | 48.91257 | 11.12489 | 20279 ft | 400 kts | 315° |
| 2026-05-05 19:25 | 48.93350 | 11.09578 | 20869 ft | 404 kts | 315° |
| 2026-05-05 19:25 | 48.95407 | 11.06712 | 21424 ft | 408 kts | 315° |
| 2026-05-05 19:25 | 48.97508 | 11.03777 | 21985 ft | 412 kts | 315° |
| 2026-05-05 19:25 | 48.99627 | 11.00809 | 22508 ft | 416 kts | 315° |
| 2026-05-05 19:26 | 49.01761 | 10.97813 | 23016 ft | 420 kts | 315° |
| 2026-05-05 19:26 | 49.03915 | 10.94787 | 23524 ft | 423 kts | 315° |
| 2026-05-05 19:26 | 49.06089 | 10.91728 | 23776 ft | 426 kts | 315° |
| 2026-05-05 19:26 | 49.08270 | 10.88656 | 23837 ft | 427 kts | 315° |
| 2026-05-05 19:27 | 49.10444 | 10.85589 | 23842 ft | 426 kts | 315° |
| 2026-05-05 19:27 | 49.12622 | 10.82511 | 23842 ft | 426 kts | 315° |
| 2026-05-05 19:27 | 49.14798 | 10.79431 | 23841 ft | 427 kts | 315° |
| 2026-05-05 19:27 | 49.16974 | 10.76344 | 23841 ft | 427 kts | 315° |
| 2026-05-05 19:28 | 49.19151 | 10.73255 | 23841 ft | 427 kts | 315° |
| 2026-05-05 19:28 | 49.21299 | 10.70127 | 23848 ft | 427 kts | 313° |
| 2026-05-05 19:28 | 49.23371 | 10.66877 | 23849 ft | 426 kts | 312° |
| 2026-05-05 19:28 | 49.25419 | 10.63588 | 23849 ft | 427 kts | 312° |
| 2026-05-05 19:29 | 49.27467 | 10.60297 | 23851 ft | 427 kts | 312° |
| 2026-05-05 19:29 | 49.29523 | 10.57015 | 23851 ft | 427 kts | 312° |
| 2026-05-05 19:29 | 49.31587 | 10.53737 | 23850 ft | 428 kts | 313° |
| 2026-05-05 19:29 | 49.33660 | 10.50453 | 23849 ft | 429 kts | 313° |
| 2026-05-05 19:30 | 49.35709 | 10.47134 | 23844 ft | 428 kts | 309° |
| 2026-05-05 19:30 | 49.37518 | 10.43509 | 23655 ft | 427 kts | 303° |
| 2026-05-05 19:30 | 49.39209 | 10.39775 | 23408 ft | 425 kts | 303° |
| 2026-05-05 19:30 | 49.40899 | 10.36069 | 23154 ft | 423 kts | 303° |
| 2026-05-05 19:31 | 49.42585 | 10.32374 | 22907 ft | 422 kts | 303° |
| 2026-05-05 19:31 | 49.44266 | 10.28689 | 22663 ft | 420 kts | 303° |
| 2026-05-05 19:31 | 49.45939 | 10.25018 | 22412 ft | 418 kts | 303° |
| 2026-05-05 19:31 | 49.47601 | 10.21358 | 22156 ft | 417 kts | 303° |
| 2026-05-05 19:32 | 49.49256 | 10.17708 | 21906 ft | 415 kts | 303° |
| 2026-05-05 19:32 | 49.50904 | 10.14072 | 21656 ft | 413 kts | 303° |
| 2026-05-05 19:32 | 49.52543 | 10.10452 | 21405 ft | 412 kts | 303° |
| 2026-05-05 19:32 | 49.54178 | 10.06832 | 21149 ft | 411 kts | 303° |
| 2026-05-05 19:33 | 49.55802 | 10.03229 | 20904 ft | 409 kts | 303° |
| 2026-05-05 19:33 | 49.57419 | 9.99639 | 20651 ft | 407 kts | 303° |
| 2026-05-05 19:33 | 49.59030 | 9.96056 | 20398 ft | 406 kts | 303° |
| 2026-05-05 19:33 | 49.60643 | 9.92465 | 19893 ft | 408 kts | 303° |
| 2026-05-05 19:34 | 49.62255 | 9.88870 | 19329 ft | 407 kts | 303° |
| 2026-05-05 19:34 | 49.63857 | 9.85294 | 18773 ft | 404 kts | 303° |
| 2026-05-05 19:34 | 49.65444 | 9.81747 | 18223 ft | 400 kts | 303° |
| 2026-05-05 19:35 | 49.68568 | 9.74755 | 17125 ft | 392 kts | 302° |
| 2026-05-05 19:35 | 49.70105 | 9.71307 | 16582 ft | 387 kts | 302° |
| 2026-05-05 19:35 | 49.71603 | 9.67944 | 16053 ft | 384 kts | 302° |
| 2026-05-05 19:35 | 49.73107 | 9.64561 | 15519 ft | 380 kts | 302° |
| 2026-05-05 19:36 | 49.74679 | 9.61306 | 14998 ft | 378 kts | 309° |
| 2026-05-05 19:36 | 49.76529 | 9.58460 | 14649 ft | 371 kts | 314° |
| 2026-05-05 19:36 | 49.78395 | 9.55748 | 14176 ft | 366 kts | 314° |
| 2026-05-05 19:36 | 49.80248 | 9.53075 | 13658 ft | 363 kts | 314° |
| 2026-05-05 19:37 | 49.82091 | 9.50438 | 13172 ft | 359 kts | 314° |
| 2026-05-05 19:37 | 49.83928 | 9.47825 | 12650 ft | 357 kts | 314° |
| 2026-05-05 19:37 | 49.85758 | 9.45249 | 12194 ft | 353 kts | 314° |
| 2026-05-05 19:37 | 49.87572 | 9.42713 | 11834 ft | 347 kts | 314° |
| 2026-05-05 19:38 | 49.89341 | 9.40242 | 11579 ft | 337 kts | 314° |
| 2026-05-05 19:38 | 49.91057 | 9.37845 | 11325 ft | 327 kts | 314° |
| 2026-05-05 19:38 | 49.92724 | 9.35511 | 11076 ft | 318 kts | 314° |
| 2026-05-05 19:38 | 49.94343 | 9.33240 | 10820 ft | 310 kts | 314° |
| 2026-05-05 19:39 | 49.95917 | 9.31029 | 10616 ft | 300 kts | 314° |
| 2026-05-05 19:39 | 49.97447 | 9.28867 | 10261 ft | 296 kts | 314° |
| 2026-05-05 19:39 | 49.98963 | 9.26705 | 9846 ft | 295 kts | 314° |
| 2026-05-05 19:39 | 50.00467 | 9.24554 | 9404 ft | 293 kts | 314° |
| 2026-05-05 19:40 | 50.01951 | 9.22399 | 8839 ft | 292 kts | 314° |
| 2026-05-05 19:40 | 50.03415 | 9.20223 | 8335 ft | 290 kts | 314° |
| 2026-05-05 19:40 | 50.04857 | 9.18070 | 7824 ft | 285 kts | 314° |
| 2026-05-05 19:40 | 50.06248 | 9.15905 | 7233 ft | 280 kts | 306° |
| 2026-05-05 19:41 | 50.07101 | 9.13301 | 6681 ft | 273 kts | 285° |
| 2026-05-05 19:41 | 50.07626 | 9.10437 | 6098 ft | 271 kts | 284° |
| 2026-05-05 19:41 | 50.08109 | 9.07677 | 5622 ft | 267 kts | 284° |
| 2026-05-05 19:41 | 50.08588 | 9.04882 | 5077 ft | 265 kts | 283° |
| 2026-05-05 19:42 | 50.09051 | 9.02123 | 4536 ft | 263 kts | 284° |
| 2026-05-05 19:42 | 50.09497 | 8.99393 | 4150 ft | 256 kts | 283° |
| 2026-05-05 19:42 | 50.09918 | 8.96756 | 4017 ft | 245 kts | 283° |
| 2026-05-05 19:42 | 50.10315 | 8.94254 | 4002 ft | 230 kts | 283° |
| 2026-05-05 19:43 | 50.10685 | 8.91928 | 3998 ft | 213 kts | 283° |
| 2026-05-05 19:43 | 50.10921 | 8.89730 | 4004 ft | 199 kts | 270° |
| 2026-05-05 19:43 | 50.10785 | 8.87684 | 3997 ft | 185 kts | 258° |
| 2026-05-05 19:43 | 50.10431 | 8.85726 | 3948 ft | 189 kts | 252° |
| 2026-05-05 19:44 | 50.09995 | 8.83818 | 3720 ft | 184 kts | 250° |
| 2026-05-05 19:44 | 50.09557 | 8.81980 | 3473 ft | 178 kts | 250° |
| 2026-05-05 19:44 | 50.09134 | 8.80193 | 3241 ft | 175 kts | 250° |
| 2026-05-05 19:44 | 50.08705 | 8.78391 | 3007 ft | 178 kts | 250° |
| 2026-05-05 19:45 | 50.08281 | 8.76608 | 2771 ft | 175 kts | 250° |
| 2026-05-05 19:45 | 50.07891 | 8.74841 | 2581 ft | 170 kts | 255° |
| 2026-05-05 19:45 | 50.07689 | 8.73065 | 2399 ft | 165 kts | 264° |
| 2026-05-05 19:45 | 50.07572 | 8.71302 | 2116 ft | 161 kts | 253° |
| 2026-05-05 19:46 | 50.07164 | 8.69749 | 1890 ft | 150 kts | 246° |
| 2026-05-05 19:46 | 50.06793 | 8.68294 | 1759 ft | 142 kts | 251° |
| 2026-05-05 19:46 | 50.06489 | 8.66844 | 1568 ft | 139 kts | 249° |
| 2026-05-05 19:46 | 50.06132 | 8.65463 | 1364 ft | 136 kts | 246° |
| 2026-05-05 19:47 | 50.05802 | 8.64075 | 1166 ft | 136 kts | 249° |
| 2026-05-05 19:47 | 50.05457 | 8.62708 | 983 ft | 135 kts | 249° |
| 2026-05-05 19:47 | 50.05143 | 8.61331 | 802 ft | 136 kts | 247° |
| 2026-05-05 19:47 | 50.04809 | 8.59951 | 600 ft | 135 kts | 250° |
| 2026-05-05 19:48 | 50.04487 | 8.58592 | 415 ft | 132 kts | 249° |
| 2026-05-05 19:48 | 50.04184 | 8.57326 | 365 ft | 106 kts | 250° |
| 2026-05-05 19:48 | 50.03996 | 8.56525 | 360 ft | 59 kts | 249° |
| 2026-05-05 19:48 | 50.03889 | 8.56027 | 353 ft | 38 kts | 262° |
| 2026-05-05 19:49 | 50.03900 | 8.55706 | 352 ft | 15 kts | 281° |
| 2026-05-05 19:49 | 50.03908 | 8.55648 | 348 ft | 2 kts | 287° |
| 2026-05-05 19:49 | 50.03909 | 8.55646 | 352 ft | 0 kts | 289° |
| 2026-05-05 19:50 | 50.03923 | 8.55628 | 348 ft | 6 kts | 334° |
| 2026-05-05 19:50 | 50.03979 | 8.55660 | 350 ft | 12 kts | 62° |
| 2026-05-05 19:51 | 50.04012 | 8.55797 | 351 ft | 15 kts | 70° |
| 2026-05-05 19:51 | 50.04050 | 8.55957 | 352 ft | 17 kts | 70° |
| 2026-05-05 19:51 | 50.04094 | 8.56140 | 355 ft | 19 kts | 69° |
| 2026-05-05 19:51 | 50.04141 | 8.56338 | 358 ft | 20 kts | 69° |
| 2026-05-05 19:52 | 50.04187 | 8.56530 | 356 ft | 19 kts | 70° |
| 2026-05-05 19:52 | 50.04234 | 8.56728 | 357 ft | 20 kts | 69° |
| 2026-05-05 19:52 | 50.04282 | 8.56929 | 359 ft | 21 kts | 69° |
| 2026-05-05 19:52 | 50.04334 | 8.57145 | 361 ft | 22 kts | 70° |
| 2026-05-05 19:53 | 50.04384 | 8.57356 | 367 ft | 19 kts | 69° |
| 2026-05-05 19:53 | 50.04430 | 8.57547 | 361 ft | 17 kts | 70° |
| 2026-05-05 19:53 | 50.04469 | 8.57713 | 364 ft | 17 kts | 70° |
| 2026-05-05 19:53 | 50.04499 | 8.57838 | 364 ft | 11 kts | 69° |
| 2026-05-05 19:54 | 50.04517 | 8.57911 | 364 ft | 5 kts | 70° |
| 2026-05-05 19:54 | 50.04522 | 8.57934 | 364 ft | 1 kts | 70° |
| 2026-05-05 19:54 | 50.04523 | 8.57938 | 364 ft | 0 kts | 70° |
| 2026-05-05 19:55 | 50.04526 | 8.57952 | 364 ft | 3 kts | 70° |
| 2026-05-05 19:55 | 50.04540 | 8.58006 | 363 ft | 8 kts | 69° |
| 2026-05-05 19:55 | 50.04564 | 8.58110 | 362 ft | 12 kts | 70° |
| 2026-05-05 19:56 | 50.04590 | 8.58218 | 365 ft | 10 kts | 70° |
| 2026-05-05 19:56 | 50.04610 | 8.58300 | 368 ft | 7 kts | 69° |
| 2026-05-05 19:56 | 50.04620 | 8.58342 | 368 ft | 0 kts | 70° |
| 2026-05-05 19:56 | 50.04622 | 8.58352 | 368 ft | 3 kts | 70° |
| 2026-05-05 19:57 | 50.04640 | 8.58427 | 368 ft | 12 kts | 69° |
| 2026-05-05 19:57 | 50.04662 | 8.58520 | 368 ft | 15 kts | 70° |
| 2026-05-05 19:57 | 50.04714 | 8.58726 | 368 ft | 14 kts | 62° |
| 2026-05-05 19:57 | 50.04811 | 8.58728 | 364 ft | 17 kts | 339° |
| 2026-05-05 19:58 | 50.04919 | 8.58668 | 363 ft | 15 kts | 348° |
| 2026-05-05 19:58 | 50.04973 | 8.58764 | 365 ft | 13 kts | 70° |
| 2026-05-05 19:58 | 50.04957 | 8.58840 | 362 ft | 8 kts | 157° |
| 2026-05-05 19:58 | 50.04921 | 8.58860 | 365 ft | 3 kts | 160° |
| 2026-05-05 19:59 | 50.04916 | 8.58863 | 362 ft | 0 kts | 160° |
| 2026-05-05 19:59 | 50.04910 | 8.58866 | 362 ft | 1 kts | 159° |
| 2026-05-05 19:59 | 50.04910 | 8.58867 | 362 ft | 0 kts | 160° |